YBBNYBUD

Guest
Details From YBBN - Brisbane Intl
To YBUD - Bundaberg
Flight Number -
Tags generated
Created
Modified
Stats Distance 177 nm / 327 km
Max Altitude 18,000 ft / 5,486 m
Waypoints 5
Social Downloads 11
Likes 0
Share VATSIM

Download

Looking for another format? Having issues loading an existing format? Contact us
Advertisement - Login to hide

Notes

Basic altitude profile: - Ascent Rate: 750ft/min - Ascent Speed: 120kts - Cruise Altitude: 7500ft - Cruise Speed: 160kts - Descent Rate: 1000ft/min - Descent Speed: 160kts Options: - Use NATs: yes - Use PACOTS: yes - Use low airways: yes - Use high airways: no

Route

YBBN BN Q26 LOAFA YBUD

ID Type Via Altitude Latitude Longitude Leg Dist Tot Dist Heading (true) Name
O YBBN APT - 0 ft / 0 m -27.37571˚ 153.12771˚ - 0 nm - Brisbane Intl
BN VOR - 300 ft / 91 m -27.36583˚ 153.13917˚ 0 nm 0 nm 46° / 46° BRISBANE VOR-DME
CORAL FIX Q26 (AWY-LO) 17,100 ft / 5,212 m -26.54778˚ 153.31944˚ 50 nm 50 nm 11° / 11° -
LOAFA FIX Q26 (AWY-LO) 18,000 ft / 5,486 m -25.03472˚ 152.11083˚ 111 nm 162 nm 324° / 325° -
O YBUD APT - 0 ft / 0 m -24.90342˚ 152.32022˚ 13 nm 176 nm 55° / 55° Bundaberg

Altitude Profile

Advertisement - Login to hide

Weather


0- 5 10 15 20 25 30 35+ Temperature / ° C

Clouds and Precipitation
Forecast for 2017-12-14 18:00 UTC. Updated 4 minutes ago

Ground ~20,000 ft ~40,000 ft Winds

YBBN

Details ICAO YBBN (BNE)
Name Brisbane Intl
Region Australia
Timezone Australia/Brisbane (UTC+10.0)
Stats Elevation 12 ft / 4 m (AMSL)
Location -27.375714° 153.127710°
Runways 2
Magnetic Variation 10.985° E

METAR

YBBN 141300Z 01009KT 9999 SCT022 23/19 Q1013 NOSIG

Decode

TAF

TAF YBBN 141059Z 1412/1518 04010KT 9999 FEW020 FM141600 20006KT 9999 FEW020 FM142300 04010KT 9999 FEW035 FM150900 05005KT 9999 SCT025

Decode

Departure Runways

ID Width Length Bearing (true) Bearing (mag) Surface Threshold Offset Overrun Length
01 148 ft / 45 m 11,805 ft / 3,598 m 26.93° 15.95° Asphalt 197 ft / 60 m 0 ft / 0 m
14 98 ft / 30 m 5,787 ft / 1,764 m 145.66° 134.68° Asphalt 197 ft / 60 m 0 ft / 0 m
19 148 ft / 45 m 11,805 ft / 3,598 m 206.92° 195.94° Asphalt 0 ft / 0 m 0 ft / 0 m
32 98 ft / 30 m 5,787 ft / 1,764 m 325.66° 314.68° Asphalt 197 ft / 60 m 0 ft / 0 m

YBUD

Details ICAO YBUD (BDB)
Name Bundaberg
Region Australia
Timezone Australia/Brisbane (UTC+10.0)
Stats Elevation 106 ft / 32 m (AMSL)
Location -24.903419° 152.320218°
Runways 2
Magnetic Variation 10.077° E

METAR

YBUD 141300Z AUTO 15004KT 9999 // NCD 22/20 Q1012

Decode

TAF

Not found

Destination Runways

ID Width Length Bearing (true) Bearing (mag) Surface Threshold Offset Overrun Length
07 95 ft / 29 m 3,704 ft / 1,129 m 68.50° 58.42° Grass 0 ft / 0 m 0 ft / 0 m
14 98 ft / 30 m 5,042 ft / 1,537 m 147.90° 137.82° Asphalt 331 ft / 101 m 30 ft / 9 m
25 95 ft / 29 m 3,704 ft / 1,129 m 248.50° 238.42° Grass 0 ft / 0 m 0 ft / 0 m
32 98 ft / 30 m 5,042 ft / 1,537 m 327.90° 317.82° Asphalt 0 ft / 0 m 39 ft / 12 m

Popular Alternatives